Time;durP1;ratioP1;P1;durP2;ratioP2;P2;SDS_P1;SDS_P2;PMS_P1;PMS_P2;Temp;Humidity;BMP_temperature;BMP_pressure;BME280_temperature;BME280_humidity;BME280_pressure;Samples;Min_cycle;Max_cycle;Signal;HPM_P1;HPM_P2
2024/01/05 00:02:19;;;;;;;1.80;1.50;;;;;;;;;;5070286;28;20048;-27
2024/01/05 00:04:46;;;;;;;2.83;2.08;;;;;;;;;;5070432;28;20048;-30
2024/01/05 00:07:15;;;;;;;2.05;1.60;;;;;;;;;;5071072;28;20094;-30
2024/01/05 00:09:42;;;;;;;2.42;1.90;;;;;;;;;;5069110;28;20051;-29
2024/01/05 00:12:09;;;;;;;2.80;1.70;;;;;;;;;;5074399;28;20052;-28
2024/01/05 00:14:37;;;;;;;2.67;1.67;;;;;;;;;;5074551;28;20103;-30
2024/01/05 00:17:05;;;;;;;2.10;1.60;;;;;;;;;;5074568;28;20423;-29
2024/01/05 00:19:32;;;;;;;2.30;1.73;;;18.90;69.40;;;;;;5073760;28;20403;-30
2024/01/05 00:21:58;;;;;;;3.85;2.00;;;17.70;74.70;;;;;;5074524;28;20053;-31
2024/01/05 00:24:27;;;;;;;2.45;1.75;;;;;;;;;;5072961;28;20109;-28
2024/01/05 00:26:54;;;;;;;2.38;1.50;;;;;;;;;;5053952;28;20102;-27
2024/01/05 00:29:21;;;;;;;1.63;1.40;;;;;;;;;;5058816;28;20070;-26
2024/01/05 00:31:49;;;;;;;2.00;1.52;;;;;;;;;;5073762;28;20555;-26
2024/01/05 00:34:16;;;;;;;2.60;1.80;;;;;;;;;;5073634;28;20501;-29
2024/01/05 00:36:43;;;;;;;2.97;1.70;;;18.50;75.00;;;;;;5073541;28;20448;-26
2024/01/05 00:39:10;;;;;;;1.80;1.50;;;;;;;;;;5073638;28;20680;-27
2024/01/05 00:41:38;;;;;;;2.10;1.52;;;17.70;50.30;;;;;;5066508;28;20386;-26
2024/01/05 00:44:05;;;;;;;1.77;1.42;;;;;;;;;;5073781;28;20057;-28
2024/01/05 00:46:32;;;;;;;2.17;1.75;;;;;;;;;;5073680;28;20644;-29
2024/01/05 00:49:00;;;;;;;2.00;1.50;;;;;;;;;;5073820;28;20397;-27
2024/01/05 00:51:27;;;;;;;2.10;1.70;;;;;;;;;;5073861;28;20444;-27
2024/01/05 00:53:55;;;;;;;2.25;1.55;;;;;;;;;;5073741;28;20137;-26
2024/01/05 00:56:23;;;;;;;2.50;1.67;;;;;;;;;;5073576;28;20079;-31
2024/01/05 00:58:51;;;;;;;1.88;1.50;;;;;;;;;;5055037;28;20053;-28
2024/01/05 01:01:18;;;;;;;2.28;1.80;;;;;;;;;;5053741;28;20049;-26
2024/01/05 01:03:45;;;;;;;2.60;1.55;;;17.80;56.30;;;;;;5053162;28;20517;-27
2024/01/05 01:06:12;;;;;;;2.20;1.50;;;;;;;;;;5053055;28;20044;-27
2024/01/05 01:08:39;;;;;;;2.03;1.40;;;17.60;68.50;;;;;;5053078;28;20549;-27
2024/01/05 01:11:06;;;;;;;1.98;1.65;;;;;;;;;;5053528;28;20098;-26
2024/01/05 01:13:33;;;;;;;1.92;1.52;;;17.40;55.70;;;;;;5054518;28;20037;-28
2024/01/05 01:16:01;;;;;;;1.70;1.58;;;17.70;50.20;;;;;;5062672;28;20052;-26
2024/01/05 01:18:28;;;;;;;1.70;1.30;;;;;;;;;;5072301;28;20501;-26
2024/01/05 01:20:55;;;;;;;1.92;1.58;;;17.60;57.10;;;;;;5072442;28;20470;-27
2024/01/05 01:23:22;;;;;;;2.03;1.42;;;17.60;74.90;;;;;;5053752;28;20521;-26
2024/01/05 01:25:49;;;;;;;2.17;1.60;;;;;;;;;;5059631;28;20505;-29
2024/01/05 01:28:16;;;;;;;1.85;1.42;;;;;;;;;;5072239;28;20501;-26
2024/01/05 01:30:44;;;;;;;1.90;1.40;;;;;;;;;;5068928;28;20447;-29
2024/01/05 01:33:12;;;;;;;2.38;1.50;;;;;;;;;;5072785;28;20049;-26
2024/01/05 01:35:39;;;;;;;3.25;1.60;;;;;;;;;;5072810;28;20049;-26
2024/01/05 01:38:06;;;;;;;2.13;1.50;;;;;;;;;;5071832;28;20048;-30
2024/01/05 01:40:34;;;;;;;1.88;1.50;;;;;;;;;;5073201;28;20109;-26
2024/01/05 01:43:01;;;;;;;2.00;1.42;;;;;;;;;;5072626;28;20087;-26
2024/01/05 01:45:28;;;;;;;2.47;1.63;;;;;;;;;;5072108;28;20056;-30
2024/01/05 01:47:55;;;;;;;2.50;1.67;;;17.50;74.40;;;;;;5072624;28;20060;-26
2024/01/05 01:50:24;;;;;;;2.80;1.70;;;;;;;;;;5056069;28;20044;-26
2024/01/05 01:52:52;;;;;;;1.90;1.60;;;;;;;;;;5052842;28;20129;-29
2024/01/05 01:55:19;;;;;;;1.70;1.40;;;;;;;;;;5052467;28;20060;-26
2024/01/05 01:57:46;;;;;;;2.30;1.67;;;;;;;;;;5052489;28;20052;-29
2024/01/05 02:00:14;;;;;;;2.67;1.60;;;;;;;;;;5052108;28;20178;-29
2024/01/05 02:02:41;;;;;;;3.03;2.00;;;17.50;57.50;;;;;;5053774;28;20148;-27
2024/01/05 02:05:08;;;;;;;2.55;1.65;;;;;;;;;;5051986;28;20448;-26
2024/01/05 02:07:36;;;;;;;2.17;1.52;;;;;;;;;;5052168;28;20103;-30
2024/01/05 02:10:03;;;;;;;2.25;1.60;;;17.50;51.50;;;;;;5052225;28;20053;-27
2024/01/05 02:12:30;;;;;;;1.77;1.50;;;;;;;;;;5052257;28;20049;-26
2024/01/05 02:14:58;;;;;;;2.28;1.80;;;;;;;;;;5051650;28;20099;-26
2024/01/05 02:17:28;;;;;;;2.17;1.50;;;17.40;50.00;;;;;;5052388;28;20040;-27
2024/01/05 02:19:56;;;;;;;2.22;1.70;;;;;;;;;;5062269;28;20127;-27
2024/01/05 02:22:23;;;;;;;2.42;1.60;;;;;;;;;;5071740;28;20113;-26
2024/01/05 02:24:51;;;;;;;2.33;1.70;;;;;;;;;;5072096;28;20444;-26
2024/01/05 02:27:19;;;;;;;3.90;2.38;;;;;;;;;;5071678;28;20045;-27
2024/01/05 02:29:46;;;;;;;2.20;1.70;;;;;;;;;;5071244;28;20045;-27
2024/01/05 02:32:13;;;;;;;2.25;1.77;;;;;;;;;;5071284;28;20078;-26
2024/01/05 02:34:40;;;;;;;2.15;1.67;;;;;;;;;;5068246;28;20090;-28
2024/01/05 02:37:07;;;;;;;2.63;1.75;;;;;;;;;;5061630;28;20041;-26
2024/01/05 02:39:36;;;;;;;2.22;1.50;;;;;;;;;;5051804;28;20053;-31
2024/01/05 02:42:04;;;;;;;2.60;1.63;;;17.60;50.30;;;;;;5051290;28;20060;-26
2024/01/05 02:44:32;;;;;;;2.80;1.80;;;;;;;;;;5051652;28;20589;-26
2024/01/05 02:46:58;;;;;;;3.10;1.70;;;17.60;75.00;;;;;;5051517;28;20052;-26
2024/01/05 02:49:26;;;;;;;2.15;1.58;;;;;;;;;;5051254;28;20056;-28
2024/01/05 02:51:53;;;;;;;2.83;1.60;;;;;;;;;;5056554;28;20091;-27
2024/01/05 02:54:20;;;;;;;3.60;1.70;;;;;;;;;;5051511;28;20049;-26
2024/01/05 02:56:47;;;;;;;3.13;1.85;;;;;;;;;;5051125;28;20056;-26
2024/01/05 02:59:16;;;;;;;1.85;1.50;;;;;;;;;;5051248;28;20057;-30
2024/01/05 03:01:42;;;;;;;2.05;1.52;;;18.50;52.50;;;;;;5051514;28;20049;-27
2024/01/05 03:04:11;;;;;;;3.10;1.70;;;17.90;74.80;;;;;;5051276;28;20045;-26
2024/01/05 03:06:37;;;;;;;2.58;1.70;;;17.90;74.70;;;;;;5050798;28;20099;-26
2024/01/05 03:09:08;;;;;;;3.67;1.98;;;;;;;;;;5066845;28;20048;-31
2024/01/05 03:11:37;;;;;;;2.75;1.60;;;;;;;;;;5071439;28;20076;-27
2024/01/05 03:14:04;;;;;;;2.10;1.45;;;17.90;74.10;;;;;;5071184;28;20053;-26
2024/01/05 03:16:32;;;;;;;3.17;1.90;;;18.00;49.90;;;;;;5070842;28;20075;-30
2024/01/05 03:18:59;;;;;;;2.50;1.60;;;;;;;;;;5070665;28;20059;-29
2024/01/05 03:21:26;;;;;;;3.38;1.63;;;18.20;71.80;;;;;;5071096;28;20064;-26
2024/01/05 03:23:53;;;;;;;1.85;1.52;;;;;;;;;;5065774;28;20048;-28
2024/01/05 03:26:20;;;;;;;2.63;1.85;;;18.90;74.70;;;;;;5050928;28;20413;-26
2024/01/05 03:28:47;;;;;;;3.15;1.95;;;;;;;;;;5050720;28;20537;-28
2024/01/05 03:31:15;;;;;;;2.78;1.63;;;;;;;;;;5050713;28;20456;-27
2024/01/05 03:33:44;;;;;;;2.55;1.73;;;;;;;;;;5059912;28;20117;-27
2024/01/05 03:36:11;;;;;;;3.33;1.80;;;;;;;;;;5070130;28;20464;-26
2024/01/05 03:38:38;;;;;;;3.08;2.40;;;18.30;74.00;;;;;;5070717;28;20052;-26
2024/01/05 03:41:05;;;;;;;2.92;1.80;;;;;;;;;;5070957;28;20048;-26
2024/01/05 03:43:32;;;;;;;2.80;1.80;;;;;;;;;;5069886;28;20052;-28
2024/01/05 03:46:00;;;;;;;2.63;1.70;;;;;;;;;;5069933;28;20052;-26
2024/01/05 03:48:27;;;;;;;2.13;1.70;;;18.40;73.90;;;;;;5068663;28;20049;-26
2024/01/05 03:50:55;;;;;;;2.75;1.80;;;18.40;49.60;;;;;;5050411;28;20136;-29
2024/01/05 03:53:22;;;;;;;3.10;1.88;;;;;;;;;;5050574;28;20494;-29
2024/01/05 03:55:49;;;;;;;3.97;1.88;;;18.50;73.80;;;;;;5050675;28;20055;-26
2024/01/05 03:58:16;;;;;;;2.60;1.65;;;;;;;;;;5050230;28;20057;-32
2024/01/05 04:00:43;;;;;;;2.63;1.88;;;18.30;73.90;;;;;;5050705;28;20045;-26
2024/01/05 04:03:10;;;;;;;2.40;1.90;;;;;;;;;;5050374;28;20465;-29
2024/01/05 04:05:37;;;;;;;2.88;1.70;;;;;;;;;;5063057;28;20394;-27
2024/01/05 04:08:06;;;;;;;2.53;1.95;;;;;;;;;;5070035;28;20505;-27
2024/01/05 04:10:34;;;;;;;2.38;1.80;;;;;;;;;;5071310;28;20110;-28
2024/01/05 04:13:01;;;;;;;2.33;1.77;;;18.90;50.60;;;;;;5071181;28;20045;-27
2024/01/05 04:15:28;;;;;;;2.53;1.70;;;;;;;;;;5066342;28;20098;-26
2024/01/05 04:17:55;;;;;;;2.72;1.63;;;18.30;73.40;;;;;;5054811;28;20498;-26
2024/01/05 04:20:22;;;;;;;2.28;1.83;;;;;;;;;;5070664;28;20106;-29
2024/01/05 04:22:49;;;;;;;2.70;1.70;;;18.40;73.40;;;;;;5065339;28;20044;-27
2024/01/05 04:25:18;;;;;;;2.45;1.70;;;18.40;49.40;;;;;;5071223;28;20094;-26
2024/01/05 04:27:45;;;;;;;2.00;1.80;;;;;;;;;;5070699;28;20105;-26
2024/01/05 04:30:12;;;;;;;2.28;1.70;;;18.40;73.20;;;;;;5070908;28;20098;-26
2024/01/05 04:32:39;;;;;;;2.42;2.00;;;18.40;61.50;;;;;;5071242;28;20543;-27
2024/01/05 04:35:07;;;;;;;1.95;1.70;;;;;;;;;;5071408;28;20055;-26
2024/01/05 04:37:34;;;;;;;2.53;1.80;;;;;;;;;;5063740;28;20124;-26
2024/01/05 04:40:01;;;;;;;2.08;1.85;;;;;;;;;;5050708;28;20614;-26
2024/01/05 04:42:29;;;;;;;2.10;1.90;;;;;;;;;;5051177;28;20417;-27
2024/01/05 04:44:56;;;;;;;2.25;1.88;;;18.40;57.10;;;;;;5050916;28;20056;-26
2024/01/05 04:47:23;;;;;;;2.17;1.67;;;;;;;;;;5051301;28;20049;-30
2024/01/05 04:49:50;;;;;;;2.20;1.90;;;19.10;74.00;;;;;;5050915;28;20048;-26
2024/01/05 04:52:17;;;;;;;2.40;1.70;;;;;;;;;;5051219;28;20112;-26
2024/01/05 04:54:44;;;;;;;2.53;2.10;;;19.20;73.80;;;;;;5054565;28;20045;-26
2024/01/05 04:57:11;;;;;;;2.35;1.80;;;;;;;;;;5054680;28;20045;-26
2024/01/05 04:59:41;;;;;;;2.17;1.88;;;;;;;;;;5054310;28;20053;-26
2024/01/05 05:02:08;;;;;;;3.13;1.95;;;;;;;;;;5054587;28;20053;-30
2024/01/05 05:04:35;;;;;;;2.13;1.60;;;19.40;74.00;;;;;;5064364;28;20099;-26
2024/01/05 05:07:02;;;;;;;2.05;1.80;;;;;;;;;;5074539;28;20052;-28
2024/01/05 05:09:29;;;;;;;2.20;1.80;;;18.50;73.60;;;;;;5069497;28;20044;-26
2024/01/05 05:11:56;;;;;;;2.85;1.85;;;;;;;;;;5074231;28;20052;-28
2024/01/05 05:14:23;;;;;;;2.50;1.90;;;;;;;;;;5074471;28;20049;-26
2024/01/05 05:16:51;;;;;;;2.28;2.00;;;18.50;49.30;;;;;;5074519;28;20048;-30
2024/01/05 05:19:19;;;;;;;2.10;1.88;;;;;;;;;;5073711;28;20475;-29
2024/01/05 05:21:46;;;;;;;1.77;1.60;;;;;;;;;;5069866;28;20071;-26
2024/01/05 05:24:13;;;;;;;2.50;1.85;;;;;;;;;;5054025;28;20502;-26
2024/01/05 05:26:41;;;;;;;2.20;1.63;;;;;;;;;;5054035;28;20060;-26
2024/01/05 05:29:08;;;;;;;2.55;1.75;;;18.60;50.50;;;;;;5053977;28;20053;-26
2024/01/05 05:31:35;;;;;;;1.90;1.70;;;;;;;;;;5053991;28;20061;-28
2024/01/05 05:34:04;;;;;;;2.80;1.80;;;18.60;49.10;;;;;;5054089;28;20098;-26
2024/01/05 05:36:31;;;;;;;2.00;1.80;;;;;;;;;;5057054;28;20044;-31
2024/01/05 05:38:58;;;;;;;2.13;1.73;;;18.60;73.10;;;;;;5058820;28;20040;-26
2024/01/05 05:41:25;;;;;;;1.85;1.65;;;;;;;;;;5073983;28;20044;-27
2024/01/05 05:43:52;;;;;;;2.55;1.80;;;18.70;73.00;;;;;;5073539;28;20481;-26
2024/01/05 05:46:19;;;;;;;2.00;1.73;;;;;;;;;;5073702;28;20052;-26
2024/01/05 05:48:46;;;;;;;1.60;1.50;;;18.80;73.10;;;;;;5073866;28;20432;-26
2024/01/05 05:51:14;;;;;;;1.83;1.52;;;18.70;49.00;;;;;;5069029;28;20044;-26
2024/01/05 05:53:41;;;;;;;1.77;1.40;;;;;;;;;;5073495;28;20516;-26
2024/01/05 05:56:09;;;;;;;1.92;1.63;;;;;;;;;;5073553;28;20460;-26
2024/01/05 05:58:36;;;;;;;1.70;1.60;;;;;;;;;;5073303;28;20516;-30
2024/01/05 06:01:04;;;;;;;2.20;1.73;;;;;;;;;;5073471;28;20056;-28
2024/01/05 06:03:32;;;;;;;2.00;1.80;;;;;;;;;;5073488;28;20048;-30
2024/01/05 06:05:59;;;;;;;2.20;1.60;;;;;;;;;;5072253;28;20048;-30
2024/01/05 06:08:27;;;;;;;1.60;1.50;;;;;;;;;;5070903;28;20044;-31
2024/01/05 06:10:54;;;;;;;1.85;1.50;;;18.50;67.80;;;;;;5073788;28;20099;-27
2024/01/05 06:13:21;;;;;;;2.38;1.75;;;18.90;73.20;;;;;;5073308;28;20044;-26
2024/01/05 06:15:48;;;;;;;1.48;1.38;;;;;;;;;;5073159;28;20493;-30
2024/01/05 06:18:15;;;;;;;1.63;1.40;;;;;;;;;;5069214;28;20440;-26
2024/01/05 06:20:42;;;;;;;1.30;1.20;;;19.00;49.50;;;;;;5072452;28;20205;-27
2024/01/05 06:23:09;;;;;;;1.50;1.40;;;18.90;54.80;;;;;;5071319;28;20529;-27
2024/01/05 06:25:38;;;;;;;1.50;1.27;;;;;;;;;;5071711;28;20105;-30
2024/01/05 06:28:05;;;;;;;1.40;1.30;;;;;;;;;;5071176;28;20044;-27
2024/01/05 06:30:32;;;;;;;2.00;1.40;;;;;;;;;;5071979;28;20102;-31
2024/01/05 06:32:59;;;;;;;2.35;1.50;;;;;;;;;;5071992;28;20045;-29
2024/01/05 06:35:27;;;;;;;2.17;1.50;;;;;;;;;;5071562;28;20178;-28
2024/01/05 06:37:54;;;;;;;2.05;1.40;;;;;;;;;;5071426;28;20113;-27
2024/01/05 06:40:22;;;;;;;1.75;1.50;;;;;;;;;;5052716;28;20052;-27
2024/01/05 06:42:50;;;;;;;1.65;1.48;;;19.00;48.70;;;;;;5051801;28;20052;-27
2024/01/05 06:45:17;;;;;;;1.60;1.50;;;19.40;49.10;;;;;;5051549;28;20452;-30
2024/01/05 06:47:44;;;;;;;1.40;1.25;;;;;;;;;;5051892;28;20044;-30
2024/01/05 06:50:12;;;;;;;1.50;1.40;;;;;;;;;;5051430;28;20110;-28
2024/01/05 06:52:39;;;;;;;1.70;1.33;;;;;;;;;;5051770;28;20088;-30
2024/01/05 06:55:06;;;;;;;3.00;1.30;;;;;;;;;;5056121;28;20098;-27
2024/01/05 06:57:35;;;;;;;1.77;1.30;;;;;;;;;;5051256;28;20493;-28
2024/01/05 07:00:04;;;;;;;1.30;1.20;;;19.00;48.70;;;;;;5051464;28;20124;-30
2024/01/05 07:02:29;;;;;;;2.85;1.50;;;19.50;57.10;;;;;;5051453;28;20052;-31
2024/01/05 07:04:57;;;;;;;1.40;1.30;;;;;;;;;;5071252;28;20405;-30
2024/01/05 07:07:24;;;;;;;2.00;1.38;;;;;;;;;;5071197;28;20048;-29
2024/01/05 07:09:51;;;;;;;1.83;1.50;;;;;;;;;;5069954;28;20044;-29
2024/01/05 07:12:19;;;;;;;1.80;1.45;;;;;;;;;;5071042;28;20103;-31
2024/01/05 07:14:47;;;;;;;1.40;1.20;;;19.60;50.10;;;;;;5071071;28;20059;-28
2024/01/05 07:17:15;;;;;;;1.80;1.48;;;19.00;48.70;;;;;;5070615;28;20322;-28
2024/01/05 07:19:42;;;;;;;1.50;1.30;;;;;;;;;;5071074;28;20059;-28
2024/01/05 07:22:09;;;;;;;1.30;1.20;;;;;;;;;;5070960;28;20060;-31
2024/01/05 07:24:37;;;;;;;1.67;1.38;;;19.00;51.90;;;;;;5071074;28;20048;-28
2024/01/05 07:27:04;;;;;;;1.55;1.30;;;;;;;;;;5069264;28;20060;-29
2024/01/05 07:29:32;;;;;;;1.88;1.67;;;;;;;;;;5050586;28;20079;-30
2024/01/05 07:31:59;;;;;;;2.58;1.50;;;;;;;;;;5051185;28;20057;-27
2024/01/05 07:34:27;;;;;;;1.67;1.48;;;19.00;48.70;;;;;;5050871;28;20103;-29
2024/01/05 07:36:54;;;;;;;1.83;1.40;;;;;;;;;;5059247;28;20417;-30
2024/01/05 07:39:21;;;;;;;1.60;1.40;;;18.90;72.60;;;;;;5069670;28;20444;-31
2024/01/05 07:41:48;;;;;;;1.40;1.30;;;;;;;;;;5070967;28;20551;-28
2024/01/05 07:44:15;;;;;;;1.63;1.35;;;19.50;73.10;;;;;;5066140;28;21474;-28
2024/01/05 07:46:42;;;;;;;1.85;1.40;;;;;;;;;;5052195;28;20044;-30
2024/01/05 07:49:10;;;;;;;1.20;1.10;;;;;;;;;;5050078;28;20794;-27
2024/01/05 07:51:38;;;;;;;1.38;1.20;;;;;;;;;;5050895;28;20048;-30
2024/01/05 07:54:05;;;;;;;2.15;1.38;;;;;;;;;;5050414;28;20575;-29
2024/01/05 07:56:37;;;;;;;2.03;1.42;;;;;;;;;;5049782;28;20132;-31
2024/01/05 07:59:05;;;;;;;1.60;1.50;;;;;;;;;;5051598;28;20056;-30
2024/01/05 08:01:32;;;;;;;1.55;1.30;;;;;;;;;;5067023;28;20086;-31
2024/01/05 08:03:59;;;;;;;1.70;1.25;;;;;;;;;;5070988;28;20114;-28
2024/01/05 08:06:26;;;;;;;1.50;1.30;;;18.80;72.40;;;;;;5070492;28;20056;-31
2024/01/05 08:08:54;;;;;;;1.65;1.20;;;;;;;;;;5070323;28;20153;-32
2024/01/05 08:11:21;;;;;;;1.77;1.23;;;;;;;;;;5069317;28;20489;-29
2024/01/05 08:13:48;;;;;;;1.48;1.30;;;;;;;;;;5070448;28;20071;-30
2024/01/05 08:16:15;;;;;;;1.30;1.20;;;;;;;;;;5068745;28;20040;-29
2024/01/05 08:18:43;;;;;;;1.67;1.35;;;;;;;;;;5070152;28;20045;-29
2024/01/05 08:21:10;;;;;;;2.95;1.33;;;;;;;;;;5070523;28;20048;-29
2024/01/05 08:23:37;;;;;;;2.15;1.17;;;;;;;;;;5070375;28;20049;-32
2024/01/05 08:26:06;;;;;;;1.85;1.30;;;;;;;;;;5070538;28;20076;-28
2024/01/05 08:28:33;;;;;;;1.38;1.10;;;;;;;;;;5070860;28;20048;-30
2024/01/05 08:31:00;;;;;;;1.38;1.13;;;19.90;64.50;;;;;;5070913;28;20045;-30
2024/01/05 08:33:28;;;;;;;1.52;1.20;;;;;;;;;;5063441;28;20040;-30
2024/01/05 08:35:55;;;;;;;1.48;1.15;;;;;;;;;;5063741;28;20044;-29
2024/01/05 08:38:22;;;;;;;2.05;1.20;;;;;;;;;;5074347;28;20048;-30
2024/01/05 08:40:50;;;;;;;2.25;1.30;;;19.50;72.20;;;;;;5074001;28;20052;-29
2024/01/05 08:43:19;;;;;;;1.48;1.10;;;;;;;;;;5074090;28;20098;-30
2024/01/05 08:45:46;;;;;;;1.75;1.30;;;19.50;72.80;;;;;;5074151;28;20072;-30
2024/01/05 08:48:14;;;;;;;2.50;1.10;;;19.40;50.40;;;;;;5071794;28;20040;-30
2024/01/05 08:50:41;;;;;;;1.23;1.10;;;;;;;;;;5061317;28;20052;-29
2024/01/05 08:53:09;;;;;;;1.52;1.10;;;;;;;;;;5053613;28;20082;-29
2024/01/05 08:55:36;;;;;;;1.10;1.00;;;19.60;53.40;;;;;;5058814;28;20068;-31
2024/01/05 08:58:04;;;;;;;2.17;1.20;;;;;;;;;;5073727;28;20493;-28
2024/01/05 09:00:33;;;;;;;1.95;1.13;;;;;;;;;;5064605;28;20634;-28
2024/01/05 09:03:00;;;;;;;1.30;1.20;;;;;;;;;;5064165;28;20060;-31
2024/01/05 09:05:27;;;;;;;1.10;1.00;;;;;;;;;;5054584;28;20049;-33
2024/01/05 09:07:55;;;;;;;2.00;1.20;;;;;;;;;;5053219;28;20580;-30
2024/01/05 09:10:23;;;;;;;1.75;1.20;;;;;;;;;;5068120;28;20055;-30
2024/01/05 09:12:50;;;;;;;2.30;1.17;;;;;;;;;;5073396;28;20559;-29
2024/01/05 09:15:17;;;;;;;1.52;1.20;;;20.20;72.00;;;;;;5073515;28;20052;-31
2024/01/05 09:17:46;;;;;;;1.75;1.27;;;;;;;;;;5073308;28;20170;-29
2024/01/05 09:20:13;;;;;;;2.72;1.63;;;;;;;;;;5073201;28;20473;-32
2024/01/05 09:22:41;;;;;;;7.63;1.42;;;;;;;;;;5064245;28;20053;-30
2024/01/05 09:25:09;;;;;;;1.48;1.10;;;;;;;;;;5063460;28;20105;-29
2024/01/05 09:27:37;;;;;;;1.52;1.30;;;;;;;;;;5063627;28;20053;-28
2024/01/05 09:30:04;;;;;;;2.28;1.20;;;;;;;;;;5061048;28;20072;-30
2024/01/05 09:32:31;;;;;;;2.03;1.33;;;20.10;71.50;;;;;;5061695;28;20462;-33
2024/01/05 09:34:59;;;;;;;1.50;1.10;;;20.10;48.20;;;;;;5063507;28;20049;-29
2024/01/05 09:37:26;;;;;;;2.15;1.25;;;;;;;;;;5061294;28;20044;-29
2024/01/05 09:39:53;;;;;;;1.73;1.10;;;20.20;71.40;;;;;;5063242;28;20044;-31
2024/01/05 09:42:22;;;;;;;1.20;1.08;;;;;;;;;;5057203;28;20120;-30
2024/01/05 09:44:51;;;;;;;1.77;1.30;;;;;;;;;;5061705;28;20057;-32
2024/01/05 09:47:19;;;;;;;1.67;1.27;;;20.30;48.20;;;;;;5060411;28;20550;-29
2024/01/05 09:49:46;;;;;;;1.10;1.00;;;;;;;;;;5059223;28;20044;-29
2024/01/05 09:52:15;;;;;;;1.25;1.15;;;;;;;;;;5056456;28;20056;-30
2024/01/05 09:54:41;;;;;;;2.83;1.17;;;20.30;71.40;;;;;;5064507;28;20669;-32
2024/01/05 09:57:09;;;;;;;2.15;1.20;;;;;;;;;;5059193;28;20055;-30
2024/01/05 09:59:36;;;;;;;1.80;1.40;;;;;;;;;;5061153;28;20044;-30
2024/01/05 10:02:03;;;;;;;1.45;1.20;;;;;;;;;;5060332;28;20048;-29
2024/01/05 10:04:30;;;;;;;1.95;1.40;;;20.10;48.20;;;;;;5062063;28;20048;-30
2024/01/05 10:07:00;;;;;;;1.77;1.20;;;20.40;47.80;;;;;;5055875;28;20102;-30
2024/01/05 10:09:30;;;;;;;1.55;1.30;;;20.50;47.90;;;;;;5062400;28;20107;-30
2024/01/05 10:11:57;;;;;;;1.77;1.20;;;;;;;;;;5059937;28;20099;-30
2024/01/05 10:14:25;;;;;;;1.65;1.30;;;;;;;;;;5065654;28;20412;-31
2024/01/05 10:16:55;;;;;;;1.73;1.10;;;;;;;;;;5060836;28;20529;-30
2024/01/05 10:19:22;;;;;;;1.88;1.40;;;;;;;;;;5058094;28;20053;-31
2024/01/05 10:21:49;;;;;;;1.50;1.20;;;;;;;;;;5058288;28;20044;-31
2024/01/05 10:24:17;;;;;;;2.00;1.27;;;20.70;64.10;;;;;;5051830;28;20397;-29
2024/01/05 10:26:46;;;;;;;1.63;1.30;;;;;;;;;;5049895;28;20436;-31
2024/01/05 10:29:14;;;;;;;2.10;1.20;;;;;;;;;;5051148;28;20041;-32
2024/01/05 10:31:41;;;;;;;1.38;1.10;;;20.40;71.40;;;;;;5051766;28;20073;-29
2024/01/05 10:34:08;;;;;;;2.92;1.35;;;;;;;;;;5051322;28;20106;-31
2024/01/05 10:36:35;;;;;;;1.45;1.08;;;20.30;71.50;;;;;;5053291;28;20041;-32
2024/01/05 10:39:04;;;;;;;2.97;1.38;;;;;;;;;;5055463;28;20041;-29
2024/01/05 10:41:31;;;;;;;1.77;1.20;;;;;;;;;;5060067;28;20053;-29
2024/01/05 10:43:59;;;;;;;1.83;1.30;;;20.70;47.80;;;;;;5062662;28;20045;-31
2024/01/05 10:46:26;;;;;;;2.55;1.20;;;;;;;;;;5054358;28;20045;-29
2024/01/05 10:48:53;;;;;;;1.52;1.30;;;20.70;65.50;;;;;;5063938;28;20044;-31
2024/01/05 10:51:22;;;;;;;2.03;1.17;;;;;;;;;;5071140;28;20082;-30
2024/01/05 10:53:49;;;;;;;1.60;1.30;;;20.80;71.70;;;;;;5054509;28;20053;-31
2024/01/05 10:56:16;;;;;;;1.75;1.33;;;;;;;;;;5051567;28;20064;-30
2024/01/05 10:58:43;;;;;;;2.25;1.30;;;21.30;71.90;;;;;;5051182;28;20506;-32
2024/01/05 11:01:12;;;;;;;1.50;1.38;;;20.80;47.70;;;;;;5054873;28;20103;-31
2024/01/05 11:03:42;;;;;;;1.52;1.20;;;;;;;;;;5056478;28;20191;-32
2024/01/05 11:06:10;;;;;;;1.50;1.20;;;;;;;;;;5050688;28;20095;-29
2024/01/05 11:08:40;;;;;;;1.80;1.25;;;;;;;;;;5053836;28;20067;-30
2024/01/05 11:11:09;;;;;;;1.80;1.38;;;;;;;;;;5050537;28;20095;-28
2024/01/05 11:13:44;;;;;;;1.98;1.50;;;;;;;;;;5049681;28;20056;-28
2024/01/05 11:16:22;;;;;;;2.15;1.20;;;;;;;;;;5049778;28;20107;-31
2024/01/05 11:18:51;;;;;;;1.20;1.08;;;;;;;;;;5059237;28;20052;-29
2024/01/05 11:21:19;;;;;;;2.00;1.40;;;20.80;52.00;;;;;;5069875;28;20097;-29
2024/01/05 11:23:46;;;;;;;3.55;1.33;;;;;;;;;;5065933;28;20048;-31
2024/01/05 11:26:34;;;;;;;3.42;1.40;;;;;;;;;;5058279;28;20102;-28
2024/01/05 11:29:01;;;;;;;2.25;1.35;;;20.90;70.50;;;;;;5049266;28;20041;-27
2024/01/05 11:31:52;;;;;;;1.85;1.30;;;21.00;47.60;;;;;;5049399;28;20110;-28
2024/01/05 11:34:32;;;;;;;3.38;1.60;;;;;;;;;;5058522;28;20477;-28
2024/01/05 11:36:59;;;;;;;2.95;1.30;;;21.00;50.90;;;;;;5057864;28;20041;-27
2024/01/05 11:39:39;;;;;;;2.08;1.20;;;21.00;47.40;;;;;;5060123;28;20053;-32
2024/01/05 11:42:07;;;;;;;1.67;1.20;;;;;;;;;;5056728;28;20045;-30
2024/01/05 11:44:34;;;;;;;2.92;1.27;;;;;;;;;;5061336;28;20052;-27
2024/01/05 11:47:02;;;;;;;1.30;1.20;;;;;;;;;;5064122;28;20049;-27
2024/01/05 11:49:39;;;;;;;1.55;1.30;;;;;;;;;;5057300;28;20571;-27
2024/01/05 11:52:07;;;;;;;3.58;1.30;;;;;;;;;;5060956;28;20555;-27
2024/01/05 11:54:35;;;;;;;1.83;1.20;;;;;;;;;;5049654;28;20047;-29
2024/01/05 11:57:02;;;;;;;3.47;1.30;;;;;;;;;;5050323;28;20049;-27
2024/01/05 11:59:29;;;;;;;1.67;1.45;;;;;;;;;;5049037;28;20497;-27
2024/01/05 12:01:56;;;;;;;3.08;1.20;;;;;;;;;;5049974;28;20057;-28
2024/01/05 12:04:25;;;;;;;2.47;1.20;;;21.10;47.60;;;;;;5052301;28;20056;-27
2024/01/05 12:06:52;;;;;;;2.08;1.30;;;;;;;;;;5054478;28;20045;-27
2024/01/05 12:09:20;;;;;;;3.50;1.20;;;;;;;;;;5053864;28;20080;-27
2024/01/05 12:11:47;;;;;;;3.65;1.38;;;;;;;;;;5054651;28;20613;-27
2024/01/05 12:14:26;;;;;;;2.75;1.23;;;;;;;;;;5053919;28;20460;-27
2024/01/05 12:16:53;;;;;;;2.50;1.48;;;;;;;;;;5064549;28;20123;-29
2024/01/05 12:19:21;;;;;;;1.98;1.35;;;20.90;70.90;;;;;;5061592;28;20099;-27
2024/01/05 12:21:52;;;;;;;1.75;1.30;;;21.10;47.60;;;;;;5063691;28;20498;-29
2024/01/05 12:24:19;;;;;;;3.28;1.30;;;;;;;;;;5065387;28;20149;-29
2024/01/05 12:26:48;;;;;;;2.53;1.30;;;;;;;;;;5060044;28;20106;-29
2024/01/05 12:29:15;;;;;;;3.13;1.30;;;;;;;;;;5063137;28;20075;-27
2024/01/05 12:31:42;;;;;;;1.80;1.25;;;;;;;;;;5065478;28;20550;-27
2024/01/05 12:34:10;;;;;;;3.67;1.50;;;;;;;;;;5072935;28;20074;-30
2024/01/05 12:36:37;;;;;;;2.65;1.33;;;21.50;71.20;;;;;;5072772;28;20072;-26
2024/01/05 12:39:11;;;;;;;1.80;1.20;;;21.10;47.70;;;;;;5073556;28;20094;-30
2024/01/05 12:41:39;;;;;;;2.08;1.40;;;;;;;;;;5069538;28;20523;-27
2024/01/05 12:44:07;;;;;;;1.67;1.27;;;;;;;;;;5073641;28;20039;-28
2024/01/05 12:46:41;;;;;;;1.70;1.20;;;;;;;;;;5063028;28;20144;-29
2024/01/05 12:49:19;;;;;;;1.50;1.40;;;;;;;;;;5073399;28;20048;-30
2024/01/05 12:51:47;;;;;;;1.63;1.20;;;;;;;;;;5073714;28;20080;-30
2024/01/05 12:54:16;;;;;;;3.35;1.20;;;21.10;47.60;;;;;;5073788;28;20045;-29
2024/01/05 12:56:45;;;;;;;1.85;1.35;;;21.10;47.60;;;;;;5073849;28;20056;-31
2024/01/05 12:59:19;;;;;;;1.80;1.40;;;21.20;47.70;;;;;;5073530;28;20048;-29
2024/01/05 13:01:46;;;;;;;3.17;1.15;;;;;;;;;;5065857;28;20470;-30
2024/01/05 13:04:13;;;;;;;1.52;1.20;;;21.20;70.90;;;;;;5063241;28;20045;-29
2024/01/05 13:06:42;;;;;;;2.15;1.30;;;21.80;71.20;;;;;;5062424;28;20048;-30
2024/01/05 13:09:10;;;;;;;1.30;1.20;;;;;;;;;;5061501;28;20654;-27
2024/01/05 13:11:38;;;;;;;1.98;1.50;;;21.10;47.60;;;;;;5064689;28;20047;-28
2024/01/05 13:14:06;;;;;;;1.60;1.20;;;;;;;;;;5055865;28;20478;-29
2024/01/05 13:16:33;;;;;;;2.47;1.42;;;;;;;;;;5060427;28;20045;-29
2024/01/05 13:19:00;;;;;;;1.25;1.15;;;;;;;;;;5065649;28;20084;-29
2024/01/05 13:21:30;;;;;;;1.80;1.38;;;;;;;;;;5062039;28;20057;-30
2024/01/05 13:23:58;;;;;;;1.85;1.38;;;;;;;;;;5070283;28;20409;-29
2024/01/05 13:26:25;;;;;;;1.50;1.20;;;;;;;;;;5072983;28;20151;-29
2024/01/05 13:28:53;;;;;;;2.05;1.42;;;;;;;;;;5073440;28;20052;-29
2024/01/05 13:31:21;;;;;;;2.10;1.40;;;;;;;;;;5058756;28;20045;-28
2024/01/05 13:33:48;;;;;;;2.00;1.42;;;;;;;;;;5053357;28;20106;-30
2024/01/05 13:36:15;;;;;;;2.00;1.40;;;;;;;;;;5055401;28;20045;-28
2024/01/05 13:38:43;;;;;;;1.95;1.45;;;;;;;;;;5073076;28;20095;-31
2024/01/05 13:41:10;;;;;;;3.10;1.35;;;;;;;;;;5072940;28;20049;-28
2024/01/05 13:43:36;;;;;;;1.42;1.30;;;22.00;71.00;;;;;;5073275;28;20048;-30
2024/01/05 13:46:06;;;;;;;1.70;1.30;;;21.00;47.80;;;;;;5072788;28;20094;-30
2024/01/05 13:48:34;;;;;;;1.67;1.23;;;;;;;;;;5072945;28;20070;-27
2024/01/05 13:51:00;;;;;;;2.05;1.35;;;21.00;71.20;;;;;;5067785;28;20470;-28
2024/01/05 13:53:27;;;;;;;2.25;1.35;;;22.10;71.70;;;;;;5052671;28;20092;-30
2024/01/05 13:55:55;;;;;;;2.50;1.38;;;;;;;;;;5052573;28;20099;-29
2024/01/05 13:58:22;;;;;;;2.22;1.30;;;;;;;;;;5052384;28;20087;-31
2024/01/05 14:00:50;;;;;;;3.20;1.40;;;21.00;70.70;;;;;;5051853;28;20398;-28
2024/01/05 14:03:19;;;;;;;1.50;1.10;;;;;;;;;;5052124;28;20127;-31
2024/01/05 14:05:46;;;;;;;1.73;1.30;;;21.30;71.20;;;;;;5052551;28;20049;-31
2024/01/05 14:08:15;;;;;;;1.48;1.20;;;;;;;;;;5054754;28;20040;-32